createdAt,value
2019-01-29T00:00:31.670Z,14.73
2019-01-29T00:01:57.323Z,17.35
2019-01-29T00:03:22.879Z,23.63
2019-01-29T00:04:48.425Z,15.80
2019-01-29T00:06:14.195Z,15.48
2019-01-29T00:07:39.634Z,16.50
2019-01-29T00:09:08.945Z,18.87
2019-01-29T00:10:34.501Z,14.37
2019-01-29T00:11:59.977Z,13.50
2019-01-29T00:13:25.554Z,13.15
2019-01-29T00:14:51.069Z,9.30
2019-01-29T00:16:16.563Z,14.93
2019-01-29T00:17:41.999Z,15.27
2019-01-29T00:19:07.458Z,16.67
2019-01-29T00:20:33.041Z,11.48
2019-01-29T00:21:58.736Z,11.60
2019-01-29T00:23:24.190Z,9.23
2019-01-29T00:24:49.669Z,12.73
2019-01-29T00:26:15.159Z,12.30
2019-01-29T00:27:40.795Z,7.03
2019-01-29T00:29:06.387Z,12.28
2019-01-29T00:30:31.893Z,11.05
2019-01-29T00:31:57.389Z,11.63
2019-01-29T00:33:22.909Z,12.25
2019-01-29T00:34:48.339Z,10.78
2019-01-29T00:36:14.023Z,16.35
2019-01-29T00:37:39.484Z,12.25
2019-01-29T00:39:08.494Z,13.93
2019-01-29T00:40:33.944Z,16.30
2019-01-29T00:41:59.475Z,12.47
2019-01-29T00:43:25.055Z,16.82
2019-01-29T00:44:50.502Z,10.48
2019-01-29T00:46:15.959Z,11.70
2019-01-29T00:47:41.646Z,12.28
2019-01-29T00:49:07.089Z,9.17
2019-01-29T00:50:32.555Z,12.55
2019-01-29T00:51:58.065Z,5.42
2019-01-29T00:53:23.510Z,10.00
2019-01-29T00:54:49.157Z,4.40
2019-01-29T00:56:14.624Z,8.18
2019-01-29T00:57:40.233Z,14.47
2019-01-29T00:59:06.080Z,3.72
2019-01-29T01:00:31.678Z,6.97
2019-01-29T01:01:57.358Z,7.40
2019-01-29T01:03:22.832Z,8.95
2019-01-29T01:04:48.354Z,6.28
2019-01-29T01:06:13.941Z,11.20
2019-01-29T01:07:39.472Z,5.42
2019-01-29T01:09:07.290Z,6.05
2019-01-29T01:10:32.977Z,7.97
2019-01-29T01:11:58.439Z,13.13
2019-01-29T01:13:23.998Z,8.65
2019-01-29T01:14:49.511Z,10.85
2019-01-29T01:16:14.965Z,9.80
2019-01-29T01:17:40.643Z,17.93
2019-01-29T01:19:06.267Z,12.78
2019-01-29T01:20:31.734Z,8.85
2019-01-29T01:21:57.353Z,12.05
2019-01-29T01:23:23.256Z,7.60
2019-01-29T01:24:49.151Z,14.00
2019-01-29T01:26:14.661Z,15.28
2019-01-29T01:27:40.384Z,10.60
2019-01-29T01:29:05.939Z,17.95
2019-01-29T01:30:31.501Z,13.03
2019-01-29T01:31:57.007Z,9.35
2019-01-29T01:33:22.486Z,9.70
2019-01-29T01:34:47.985Z,13.43
2019-01-29T01:36:13.491Z,13.35
2019-01-29T01:37:39.111Z,10.40
2019-01-29T01:39:07.664Z,10.80
2019-01-29T01:40:33.196Z,16.37
2019-01-29T01:41:59.672Z,14.98
2019-01-29T01:43:25.082Z,15.68
2019-01-29T01:44:50.595Z,13.20
2019-01-29T01:46:16.135Z,16.90
2019-01-29T01:47:42.172Z,17.05
2019-01-29T01:49:07.726Z,12.03
2019-01-29T01:50:34.949Z,12.00
2019-01-29T01:52:00.903Z,15.58
2019-01-29T01:53:26.403Z,14.98
2019-01-29T01:54:51.963Z,16.50
2019-01-29T01:56:17.418Z,11.78
2019-01-29T01:57:42.930Z,14.00
2019-01-29T01:59:08.468Z,14.20
2019-01-29T02:00:34.387Z,13.08
2019-01-29T02:02:00.056Z,14.60
2019-01-29T02:03:25.622Z,14.05
2019-01-29T02:04:51.095Z,13.05
2019-01-29T02:06:16.591Z,11.70
2019-01-29T02:07:42.278Z,14.98
2019-01-29T02:09:10.210Z,10.82
2019-01-29T02:10:35.787Z,12.75
2019-01-29T02:12:01.269Z,17.40
2019-01-29T02:13:26.745Z,11.90
2019-01-29T02:14:52.291Z,18.85
2019-01-29T02:16:18.285Z,7.72
2019-01-29T02:17:43.784Z,6.75
2019-01-29T02:19:09.219Z,11.12
2019-01-29T02:20:35.309Z,14.03
2019-01-29T02:22:00.820Z,12.33
2019-01-29T02:23:26.255Z,11.48
2019-01-29T02:24:51.981Z,16.17
2019-01-29T02:26:17.515Z,15.03
2019-01-29T02:27:43.105Z,9.28
2019-01-29T02:29:08.718Z,16.40
2019-01-29T02:30:34.324Z,9.93
2019-01-29T02:31:59.832Z,6.60
2019-01-29T02:33:26.479Z,9.15
2019-01-29T02:34:51.987Z,16.02
2019-01-29T02:36:17.632Z,10.28
2019-01-29T02:37:43.150Z,9.98
2019-01-29T02:39:10.249Z,12.95
2019-01-29T02:40:37.307Z,20.37
2019-01-29T02:42:02.799Z,16.35
2019-01-29T02:43:28.500Z,16.15
2019-01-29T02:44:54.062Z,26.12
2019-01-29T02:46:19.846Z,23.92
2019-01-29T02:47:46.324Z,14.85
2019-01-29T02:49:11.750Z,13.62
2019-01-29T02:50:37.207Z,21.75
2019-01-29T02:52:02.771Z,14.23
2019-01-29T02:53:28.159Z,13.30
2019-01-29T02:54:53.618Z,15.80
2019-01-29T02:56:19.063Z,10.28
2019-01-29T02:57:44.730Z,13.22
2019-01-29T02:59:10.245Z,16.37
2019-01-29T03:00:35.786Z,17.57
2019-01-29T03:02:01.245Z,8.25
2019-01-29T03:03:26.766Z,9.20
2019-01-29T03:04:53.516Z,9.28
2019-01-29T03:06:19.410Z,17.07
2019-01-29T03:07:45.162Z,10.28
2019-01-29T03:09:11.149Z,13.35
2019-01-29T03:10:36.850Z,10.25
2019-01-29T03:12:02.334Z,7.15
2019-01-29T03:13:27.897Z,8.60
2019-01-29T03:14:53.317Z,14.83
2019-01-29T03:16:19.246Z,7.58
2019-01-29T03:17:44.796Z,7.17
2019-01-29T03:19:10.287Z,13.93
2019-01-29T03:20:35.913Z,6.28
2019-01-29T03:22:01.620Z,4.75
2019-01-29T03:23:27.908Z,9.35
2019-01-29T03:24:54.174Z,9.80
2019-01-29T03:26:19.830Z,15.45
2019-01-29T03:27:45.304Z,8.73
2019-01-29T03:29:10.860Z,9.83
2019-01-29T03:30:36.298Z,7.53
2019-01-29T03:32:01.725Z,11.20
2019-01-29T03:33:27.157Z,5.10
2019-01-29T03:34:52.645Z,6.03
2019-01-29T03:36:18.183Z,7.75
2019-01-29T03:37:43.725Z,6.62
2019-01-29T03:39:10.086Z,4.90
2019-01-29T03:40:35.855Z,6.00
2019-01-29T03:42:01.524Z,6.90
2019-01-29T03:43:27.631Z,3.55
2019-01-29T03:44:53.262Z,6.50
2019-01-29T03:46:19.902Z,6.50
2019-01-29T03:47:45.585Z,6.15
2019-01-29T03:49:11.008Z,6.22
2019-01-29T03:50:36.421Z,9.28
2019-01-29T03:52:01.907Z,6.70
2019-01-29T03:53:37.509Z,11.97
2019-01-29T03:54:54.475Z,5.00
2019-01-29T03:56:19.958Z,6.35
2019-01-29T03:57:45.485Z,6.60
2019-01-29T03:59:10.953Z,8.15
2019-01-29T04:00:36.538Z,5.55
2019-01-29T04:02:01.993Z,4.47
2019-01-29T04:03:27.448Z,5.95
2019-01-29T04:04:52.838Z,7.72
2019-01-29T04:06:18.234Z,10.68
2019-01-29T04:07:43.842Z,6.83
2019-01-29T04:09:10.538Z,6.20
2019-01-29T04:10:35.994Z,5.58
2019-01-29T04:12:01.448Z,11.03
2019-01-29T04:13:27.078Z,7.00
2019-01-29T04:14:52.710Z,6.42
2019-01-29T04:16:18.370Z,8.05
2019-01-29T04:17:44.075Z,14.85
2019-01-29T04:19:09.513Z,6.08
2019-01-29T04:20:35.340Z,7.28
2019-01-29T04:22:00.904Z,9.13
2019-01-29T04:23:26.460Z,3.80
2019-01-29T04:24:52.017Z,8.43
2019-01-29T04:26:17.589Z,5.33
2019-01-29T04:27:43.220Z,8.23
2019-01-29T04:29:08.724Z,5.75
2019-01-29T04:30:34.181Z,12.07
2019-01-29T04:31:59.610Z,5.53
2019-01-29T04:33:25.068Z,9.00
2019-01-29T04:34:50.531Z,10.10
2019-01-29T04:36:16.018Z,10.28
2019-01-29T04:37:41.656Z,7.87
2019-01-29T04:39:09.297Z,6.37
2019-01-29T04:40:34.910Z,6.53
2019-01-29T04:42:00.395Z,4.33
2019-01-29T04:43:25.974Z,14.07
2019-01-29T04:44:51.622Z,9.45
2019-01-29T04:46:17.086Z,6.85
2019-01-29T04:47:42.747Z,9.45
2019-01-29T04:49:08.606Z,7.90
2019-01-29T04:50:34.078Z,6.50
2019-01-29T04:51:59.521Z,10.50
2019-01-29T04:53:25.074Z,4.25
2019-01-29T04:54:51.077Z,8.13
2019-01-29T04:56:16.530Z,7.10
2019-01-29T04:57:42.182Z,8.05
2019-01-29T04:59:07.679Z,6.87
2019-01-29T05:00:33.359Z,6.70
2019-01-29T05:01:58.896Z,8.53
2019-01-29T05:03:24.387Z,4.80
2019-01-29T05:04:49.952Z,10.23
2019-01-29T05:06:15.738Z,6.50
2019-01-29T05:07:41.300Z,8.63
2019-01-29T05:09:09.576Z,5.42
2019-01-29T05:10:35.118Z,7.67
2019-01-29T05:12:00.557Z,8.05
2019-01-29T05:13:26.122Z,7.53
2019-01-29T05:14:51.719Z,3.65
2019-01-29T05:16:17.306Z,5.30
2019-01-29T05:17:43.178Z,15.05
2019-01-29T05:19:08.830Z,6.50
2019-01-29T05:20:34.278Z,6.92
2019-01-29T05:21:59.873Z,3.55
2019-01-29T05:23:25.357Z,10.05
2019-01-29T05:24:50.790Z,4.53
2019-01-29T05:26:16.289Z,9.15
2019-01-29T05:27:42.142Z,4.62
2019-01-29T05:29:07.716Z,8.73
2019-01-29T05:30:33.192Z,4.35
2019-01-29T05:31:58.621Z,4.80
2019-01-29T05:33:28.011Z,8.53
2019-01-29T05:35:05.872Z,4.87
2019-01-29T05:36:32.149Z,3.22
2019-01-29T05:38:08.109Z,7.72
2019-01-29T05:39:33.621Z,7.75
2019-01-29T05:41:01.635Z,4.92
2019-01-29T05:42:27.110Z,3.52
2019-01-29T05:43:52.611Z,6.10
2019-01-29T05:45:19.361Z,5.70
2019-01-29T05:46:44.849Z,9.23
2019-01-29T05:48:10.588Z,3.30
2019-01-29T05:49:36.032Z,5.17
2019-01-29T05:51:01.523Z,6.12
2019-01-29T05:52:27.061Z,11.60
2019-01-29T05:53:52.584Z,6.58
2019-01-29T05:55:18.901Z,7.03
2019-01-29T05:56:44.372Z,6.78
2019-01-29T05:58:09.908Z,3.80
2019-01-29T05:59:35.513Z,12.78
2019-01-29T06:01:00.993Z,7.10
2019-01-29T06:02:26.545Z,5.83
2019-01-29T06:03:52.080Z,3.72
2019-01-29T06:05:18.379Z,4.92
2019-01-29T06:06:43.963Z,5.72
2019-01-29T06:08:09.415Z,4.85
2019-01-29T06:09:34.881Z,9.60
2019-01-29T06:11:00.378Z,17.20
2019-01-29T06:12:26.411Z,9.55
2019-01-29T06:13:51.886Z,8.43
2019-01-29T06:15:18.854Z,5.03
2019-01-29T06:16:44.466Z,6.12
2019-01-29T06:18:10.000Z,5.05
2019-01-29T06:19:35.482Z,7.60
2019-01-29T06:21:01.030Z,5.80
2019-01-29T06:22:26.553Z,6.08
2019-01-29T06:23:52.009Z,5.45
2019-01-29T06:25:17.764Z,4.55
2019-01-29T06:26:43.512Z,6.85
2019-01-29T06:28:08.998Z,8.10
2019-01-29T06:29:35.720Z,5.78
2019-01-29T06:31:01.139Z,6.10
2019-01-29T06:32:26.605Z,6.90
2019-01-29T06:33:52.127Z,3.62
2019-01-29T06:35:18.465Z,3.75
2019-01-29T06:36:43.999Z,2.45
2019-01-29T06:38:09.458Z,1.70
2019-01-29T06:39:37.309Z,2.58
2019-01-29T06:41:02.089Z,3.25
2019-01-29T06:42:27.635Z,3.92
2019-01-29T06:43:53.124Z,3.92
2019-01-29T06:45:19.249Z,5.30
2019-01-29T06:46:45.765Z,7.42
2019-01-29T06:48:11.241Z,5.17
2019-01-29T06:49:36.679Z,3.55
2019-01-29T06:51:02.467Z,6.20
2019-01-29T06:52:27.942Z,5.00
2019-01-29T06:53:53.673Z,3.27
2019-01-29T06:55:20.519Z,4.37
2019-01-29T06:56:45.979Z,3.47
2019-01-29T06:58:11.532Z,2.05
2019-01-29T06:59:37.074Z,4.67
2019-01-29T07:01:03.721Z,4.15
2019-01-29T07:02:29.265Z,3.92
2019-01-29T07:03:54.886Z,4.10
2019-01-29T07:05:20.432Z,10.23
2019-01-29T07:06:45.917Z,7.22
2019-01-29T07:08:11.419Z,5.08
2019-01-29T07:09:36.897Z,8.55
2019-01-29T07:11:02.395Z,2.55
2019-01-29T07:12:27.977Z,5.15
2019-01-29T07:13:53.678Z,8.05
2019-01-29T07:15:40.040Z,5.00
2019-01-29T07:17:33.803Z,7.55
2019-01-29T07:19:10.859Z,11.43
2019-01-29T07:20:36.470Z,14.60
2019-01-29T07:22:02.661Z,10.63
2019-01-29T07:23:28.207Z,7.28
2019-01-29T07:24:53.864Z,10.78
2019-01-29T07:26:19.455Z,9.18
2019-01-29T07:27:45.164Z,4.55
2019-01-29T07:29:10.700Z,3.95
2019-01-29T07:30:36.305Z,5.87
2019-01-29T07:32:01.863Z,10.72
2019-01-29T07:33:27.462Z,9.03
2019-01-29T07:34:52.984Z,5.50
2019-01-29T07:36:18.466Z,7.87
2019-01-29T07:37:44.084Z,12.63
2019-01-29T07:39:11.623Z,7.00
2019-01-29T07:40:37.076Z,8.33
2019-01-29T07:42:02.493Z,4.90
2019-01-29T07:43:27.931Z,7.95
2019-01-29T07:44:53.447Z,10.90
2019-01-29T07:46:19.046Z,17.85
2019-01-29T07:47:44.709Z,5.30
2019-01-29T07:49:10.349Z,9.53
2019-01-29T07:50:35.887Z,9.85
2019-01-29T07:52:01.339Z,9.33
2019-01-29T07:53:26.921Z,8.05
2019-01-29T07:54:52.646Z,14.20
2019-01-29T07:56:18.259Z,13.45
2019-01-29T07:57:43.752Z,12.40
2019-01-29T07:59:09.211Z,14.15
2019-01-29T08:00:34.796Z,19.37
2019-01-29T08:02:00.372Z,6.55
2019-01-29T08:03:25.784Z,5.00
2019-01-29T08:04:51.279Z,9.28
2019-01-29T08:06:16.760Z,11.80
2019-01-29T08:07:42.315Z,5.45
2019-01-29T08:09:10.797Z,30.68
2019-01-29T08:10:36.389Z,7.37
2019-01-29T08:12:01.871Z,7.67
2019-01-29T08:13:27.521Z,11.18
2019-01-29T08:14:53.132Z,13.10
2019-01-29T08:16:18.631Z,16.90
2019-01-29T08:17:44.079Z,9.40
2019-01-29T08:19:09.646Z,27.73
2019-01-29T08:20:35.262Z,16.75
2019-01-29T08:22:00.720Z,18.48
2019-01-29T08:23:26.315Z,12.23
2019-01-29T08:25:00.976Z,15.83
2019-01-29T08:26:19.079Z,16.90
2019-01-29T08:27:44.708Z,20.05
2019-01-29T08:29:10.411Z,13.25
2019-01-29T08:30:36.135Z,20.57
2019-01-29T08:32:01.740Z,9.48
2019-01-29T08:33:27.247Z,10.58
2019-01-29T08:34:52.775Z,20.10
2019-01-29T08:36:18.221Z,11.38
2019-01-29T08:37:43.816Z,11.30
2019-01-29T08:39:10.088Z,5.90
2019-01-29T08:40:35.569Z,9.83
2019-01-29T08:42:01.084Z,5.20
2019-01-29T08:43:26.596Z,13.95
2019-01-29T08:44:52.117Z,10.18
2019-01-29T08:46:17.686Z,7.55
2019-01-29T08:47:43.299Z,7.95
2019-01-29T08:49:08.944Z,5.53
2019-01-29T08:50:34.609Z,10.00
2019-01-29T08:52:00.074Z,6.03
2019-01-29T08:53:25.659Z,13.40
2019-01-29T08:54:51.132Z,10.20
2019-01-29T08:56:16.878Z,5.05
2019-01-29T08:57:42.471Z,7.53
2019-01-29T08:59:07.916Z,12.30
2019-01-29T09:00:33.381Z,8.73
2019-01-29T09:01:58.853Z,11.60
2019-01-29T09:03:24.394Z,5.40
2019-01-29T09:04:49.826Z,12.58
2019-01-29T09:06:15.311Z,10.63
2019-01-29T09:07:40.738Z,6.83
2019-01-29T09:09:09.624Z,8.25
2019-01-29T09:10:35.163Z,8.73
2019-01-29T09:12:00.825Z,6.75
2019-01-29T09:13:26.357Z,8.18
2019-01-29T09:14:51.793Z,10.38
2019-01-29T09:16:17.254Z,19.35
2019-01-29T09:17:42.974Z,10.00
2019-01-29T09:19:08.426Z,11.18
2019-01-29T09:20:33.853Z,8.40
2019-01-29T09:21:59.352Z,11.93
2019-01-29T09:23:24.787Z,6.00
2019-01-29T09:24:50.193Z,16.87
2019-01-29T09:26:15.650Z,9.68
2019-01-29T09:27:41.147Z,11.85
2019-01-29T09:29:06.565Z,19.67
2019-01-29T09:30:32.054Z,24.92
2019-01-29T09:31:57.467Z,12.73
2019-01-29T09:33:23.017Z,10.00
2019-01-29T09:34:48.547Z,17.90
2019-01-29T09:36:13.954Z,34.55
2019-01-29T09:37:39.564Z,24.33
2019-01-29T09:39:09.029Z,18.03
2019-01-29T09:40:34.650Z,19.20
2019-01-29T09:42:00.113Z,9.20
2019-01-29T09:43:25.637Z,10.53
2019-01-29T09:44:51.176Z,15.80
2019-01-29T09:46:16.608Z,11.53
2019-01-29T09:47:42.134Z,14.40
2019-01-29T09:49:07.764Z,12.03
2019-01-29T09:50:33.253Z,13.67
2019-01-29T09:51:58.794Z,23.00
2019-01-29T09:53:24.202Z,21.27
2019-01-29T09:54:49.650Z,14.03
2019-01-29T09:56:15.065Z,10.47
2019-01-29T09:57:40.531Z,5.73
2019-01-29T09:59:06.163Z,9.63
2019-01-29T10:00:37.077Z,11.80
2019-01-29T10:02:02.542Z,9.73
2019-01-29T10:03:28.126Z,11.47
2019-01-29T10:04:53.578Z,10.43
2019-01-29T10:06:19.038Z,9.43
2019-01-29T10:07:44.478Z,8.27
2019-01-29T10:09:10.151Z,10.70
2019-01-29T10:10:35.663Z,18.40
2019-01-29T10:12:01.069Z,9.07
2019-01-29T10:13:26.526Z,14.10
2019-01-29T10:14:51.929Z,12.73
2019-01-29T10:16:17.336Z,6.27
2019-01-29T10:17:42.809Z,9.20
2019-01-29T10:19:08.268Z,8.10
2019-01-29T10:20:34.151Z,7.67
2019-01-29T10:21:59.593Z,5.23
2019-01-29T10:23:25.011Z,4.23
2019-01-29T10:24:50.449Z,5.20
2019-01-29T10:26:15.895Z,9.27
2019-01-29T10:27:41.417Z,5.93
2019-01-29T10:29:06.961Z,10.40
2019-01-29T10:30:32.527Z,11.00
2019-01-29T10:31:58.046Z,4.30
2019-01-29T10:33:23.577Z,9.33
2019-01-29T10:34:49.039Z,6.70
2019-01-29T10:36:14.473Z,6.00
2019-01-29T10:37:40.011Z,15.93
2019-01-29T10:39:09.681Z,7.15
2019-01-29T10:40:35.130Z,6.12
2019-01-29T10:42:00.562Z,6.85
2019-01-29T10:43:26.050Z,9.80
2019-01-29T10:44:51.500Z,5.47
2019-01-29T10:46:16.935Z,6.15
2019-01-29T10:47:42.449Z,7.33
2019-01-29T10:49:08.007Z,8.50
2019-01-29T10:50:33.685Z,6.93
2019-01-29T10:51:59.126Z,6.08
2019-01-29T10:53:24.589Z,5.75
2019-01-29T10:54:50.467Z,7.10
2019-01-29T10:56:16.191Z,7.92
2019-01-29T10:57:41.682Z,6.35
2019-01-29T10:59:07.326Z,4.23
2019-01-29T11:00:38.542Z,5.67
2019-01-29T11:02:04.386Z,3.60
2019-01-29T11:03:30.167Z,10.25
2019-01-29T11:04:55.696Z,14.17
2019-01-29T11:06:21.203Z,9.90
2019-01-29T11:07:46.721Z,8.80
2019-01-29T11:09:14.935Z,5.77
2019-01-29T11:10:40.365Z,8.50
2019-01-29T11:12:06.402Z,8.20
2019-01-29T11:13:32.028Z,7.33
2019-01-29T11:14:57.513Z,6.70
2019-01-29T11:16:23.006Z,6.30
2019-01-29T11:17:48.517Z,14.27
2019-01-29T11:19:13.974Z,11.22
2019-01-29T11:20:39.783Z,7.40
2019-01-29T11:22:05.888Z,18.60
2019-01-29T11:23:31.320Z,5.60
2019-01-29T11:24:56.979Z,35.83
2019-01-29T11:26:22.383Z,8.63
2019-01-29T11:27:48.027Z,8.53
2019-01-29T11:29:13.674Z,9.90
2019-01-29T11:30:39.214Z,5.83
2019-01-29T11:32:06.630Z,7.50
2019-01-29T11:33:32.133Z,13.53
2019-01-29T11:34:57.703Z,7.30
2019-01-29T11:36:23.367Z,7.30
2019-01-29T11:37:48.847Z,6.73
2019-01-29T11:39:14.489Z,11.90
2019-01-29T11:40:40.065Z,6.83
2019-01-29T11:42:05.802Z,10.07
2019-01-29T11:43:31.237Z,13.27
2019-01-29T11:44:56.787Z,6.60
2019-01-29T11:46:22.233Z,7.70
2019-01-29T11:47:47.747Z,9.27
2019-01-29T11:49:13.204Z,6.35
2019-01-29T11:50:38.727Z,4.63
2019-01-29T11:52:04.262Z,6.95
2019-01-29T11:53:30.986Z,8.53
2019-01-29T11:54:56.501Z,15.35
2019-01-29T11:56:21.962Z,6.87
2019-01-29T11:57:47.377Z,5.75
2019-01-29T11:59:12.816Z,6.15
2019-01-29T12:00:52.681Z,8.50
2019-01-29T12:02:18.152Z,5.78
2019-01-29T12:03:43.639Z,5.00
2019-01-29T12:05:10.249Z,5.05
2019-01-29T12:06:35.691Z,4.12
2019-01-29T12:08:01.239Z,11.97
2019-01-29T12:09:26.736Z,8.80
2019-01-29T12:10:52.322Z,6.65
2019-01-29T12:12:17.886Z,7.92
2019-01-29T12:13:43.445Z,11.93
2019-01-29T12:15:10.726Z,9.58
2019-01-29T12:16:36.276Z,19.35
2019-01-29T12:18:01.813Z,6.20
2019-01-29T12:19:27.286Z,10.75
2019-01-29T12:20:52.791Z,4.35
2019-01-29T12:22:18.251Z,16.07
2019-01-29T12:23:43.863Z,8.93
2019-01-29T12:25:09.844Z,8.30
2019-01-29T12:26:35.293Z,7.22
2019-01-29T12:28:00.876Z,9.30
2019-01-29T12:29:26.309Z,16.65
2019-01-29T12:30:52.030Z,15.38
2019-01-29T12:32:24.144Z,11.05
2019-01-29T12:33:49.901Z,4.55
2019-01-29T12:35:15.512Z,14.50
2019-01-29T12:36:40.969Z,9.95
2019-01-29T12:38:07.075Z,11.68
2019-01-29T12:39:32.504Z,7.87
2019-01-29T12:40:57.970Z,4.87
2019-01-29T12:42:23.638Z,9.25
2019-01-29T12:43:49.360Z,12.85
2019-01-29T12:45:16.029Z,6.20
2019-01-29T12:46:41.741Z,7.80
2019-01-29T12:48:07.473Z,15.58
2019-01-29T12:49:33.230Z,4.92
2019-01-29T12:50:59.757Z,11.05
2019-01-29T12:52:31.537Z,10.38
2019-01-29T12:53:58.332Z,7.97
2019-01-29T12:55:23.866Z,12.30
2019-01-29T12:56:49.261Z,9.15
2019-01-29T12:58:14.838Z,7.17
2019-01-29T12:59:40.383Z,8.55
2019-01-29T13:01:06.364Z,11.97
2019-01-29T13:02:31.815Z,6.27
2019-01-29T13:03:57.264Z,8.23
2019-01-29T13:05:22.899Z,12.13
2019-01-29T13:06:48.337Z,7.67
2019-01-29T13:08:13.965Z,5.95
2019-01-29T13:09:39.526Z,8.75
2019-01-29T13:11:05.533Z,9.37
2019-01-29T13:12:31.013Z,10.13
2019-01-29T13:13:56.538Z,9.57
2019-01-29T13:15:25.767Z,16.77
2019-01-29T13:16:51.219Z,8.38
2019-01-29T13:18:16.794Z,11.22
2019-01-29T13:19:42.300Z,7.87
2019-01-29T13:21:07.782Z,9.00
2019-01-29T13:22:33.242Z,5.65
2019-01-29T13:23:58.788Z,8.68
2019-01-29T13:25:24.469Z,6.93
2019-01-29T13:26:49.907Z,3.98
2019-01-29T13:28:15.580Z,9.03
2019-01-29T13:29:41.076Z,7.33
2019-01-29T13:31:06.743Z,5.87
2019-01-29T13:32:33.890Z,15.75
2019-01-29T13:33:59.904Z,5.28
2019-01-29T13:35:27.505Z,11.28
2019-01-29T13:36:53.589Z,9.90
2019-01-29T13:38:19.274Z,8.83
2019-01-29T13:39:44.768Z,9.78
2019-01-29T13:41:10.426Z,9.25
2019-01-29T13:42:36.219Z,8.35
2019-01-29T13:44:01.857Z,7.87
2019-01-29T13:45:27.635Z,5.70
2019-01-29T13:46:53.128Z,6.72
2019-01-29T13:48:18.914Z,7.95
2019-01-29T13:49:44.377Z,11.45
2019-01-29T13:51:10.110Z,6.45
2019-01-29T13:52:35.554Z,7.20
2019-01-29T13:54:00.942Z,6.12
2019-01-29T13:55:26.749Z,5.45
2019-01-29T13:56:52.186Z,9.25
2019-01-29T13:58:17.840Z,14.33
2019-01-29T13:59:43.469Z,7.65
2019-01-29T14:01:09.109Z,10.35
2019-01-29T14:02:44.513Z,10.30
2019-01-29T14:04:10.163Z,13.43
2019-01-29T14:05:35.786Z,10.63
2019-01-29T14:07:01.210Z,12.95
2019-01-29T14:08:33.381Z,8.73
2019-01-29T14:09:59.954Z,16.63
2019-01-29T14:11:34.734Z,6.83
2019-01-29T14:15:59.451Z,9.80
2019-01-29T14:17:24.993Z,9.00
2019-01-29T14:18:50.454Z,7.63
2019-01-29T14:20:17.730Z,16.47
2019-01-29T14:21:43.215Z,10.73
2019-01-29T14:23:09.955Z,13.18
2019-01-29T14:24:35.438Z,10.03
2019-01-29T14:26:02.595Z,14.10
2019-01-29T14:27:28.067Z,7.70
2019-01-29T14:28:58.454Z,23.75
2019-01-29T14:30:24.410Z,11.88
2019-01-29T14:31:50.075Z,17.27
2019-01-29T14:33:15.646Z,8.25
2019-01-29T14:34:42.661Z,10.60
2019-01-29T14:36:17.253Z,4.62
2019-01-29T14:38:36.530Z,13.27
2019-01-29T14:40:28.290Z,9.27
2019-01-29T14:50:11.846Z,7.10
2019-01-29T14:51:37.282Z,9.20
2019-01-29T14:53:03.071Z,11.10
2019-01-29T14:54:31.990Z,6.15
2019-01-29T14:55:57.584Z,15.77
2019-01-29T14:57:23.027Z,8.68
2019-01-29T14:59:02.001Z,15.75
2019-01-29T15:03:44.411Z,9.85
2019-01-29T15:05:28.470Z,11.00
2019-01-29T15:06:54.128Z,10.72
2019-01-29T15:08:19.639Z,15.38
2019-01-29T15:10:23.851Z,15.23
2019-01-29T15:11:49.404Z,8.83
2019-01-29T15:14:06.152Z,10.72
2019-01-29T15:18:13.711Z,9.17
2019-01-29T15:19:42.596Z,8.00
2019-01-29T15:21:08.036Z,13.33
2019-01-29T15:23:36.597Z,9.27
2019-01-29T15:25:02.365Z,13.37
2019-01-29T15:28:51.994Z,7.40
2019-01-29T15:30:57.276Z,15.03
2019-01-29T15:32:22.694Z,11.07
2019-01-29T15:33:50.912Z,7.60
2019-01-29T15:35:20.946Z,9.13
2019-01-29T15:37:08.622Z,25.07
2019-01-29T15:38:34.013Z,9.25
2019-01-29T15:39:59.477Z,15.07
2019-01-29T15:41:24.982Z,12.97
2019-01-29T15:42:50.879Z,9.83
2019-01-29T15:44:46.037Z,5.80
2019-01-29T15:45:43.610Z,10.37
2019-01-29T15:47:09.126Z,17.00
2019-01-29T15:48:34.627Z,14.70
2019-01-29T15:50:00.096Z,7.00
2019-01-29T15:51:25.717Z,13.70
2019-01-29T15:52:51.326Z,14.53
2019-01-29T15:54:16.884Z,17.80
2019-01-29T15:55:42.468Z,15.43
2019-01-29T15:57:14.007Z,11.22
2019-01-29T15:58:35.386Z,11.48
2019-01-29T16:00:11.296Z,18.10
2019-01-29T16:01:35.986Z,12.77
2019-01-29T16:03:01.633Z,20.50
2019-01-29T16:04:27.125Z,18.10
2019-01-29T16:05:52.668Z,12.20
2019-01-29T16:07:18.241Z,15.37
2019-01-29T16:08:43.835Z,18.27
2019-01-29T16:10:11.515Z,15.50
2019-01-29T16:11:37.038Z,12.37
2019-01-29T16:13:02.506Z,13.83
2019-01-29T16:14:27.927Z,19.23
2019-01-29T16:15:53.371Z,13.43
2019-01-29T16:17:18.833Z,12.30
2019-01-29T16:18:44.363Z,11.57
2019-01-29T16:20:12.317Z,13.53
2019-01-29T16:21:37.756Z,18.87
2019-01-29T16:23:03.290Z,11.70
2019-01-29T16:24:28.775Z,21.03
2019-01-29T16:25:54.414Z,21.17
2019-01-29T16:27:22.819Z,31.40
2019-01-29T16:28:47.185Z,12.50
2019-01-29T16:30:16.971Z,17.03
2019-01-29T16:31:42.413Z,16.83
2019-01-29T16:33:08.231Z,10.70
2019-01-29T16:34:33.776Z,19.63
2019-01-29T16:35:59.428Z,14.53
2019-01-29T16:37:24.991Z,13.50
2019-01-29T16:38:50.437Z,16.67
2019-01-29T16:40:17.035Z,15.10
2019-01-29T16:41:42.699Z,12.37
2019-01-29T16:43:08.179Z,15.30
2019-01-29T16:44:33.677Z,14.37
2019-01-29T16:45:59.226Z,16.10
2019-01-29T16:47:24.720Z,11.80
2019-01-29T16:48:50.211Z,14.27
2019-01-29T16:50:16.427Z,22.13
2019-01-29T16:51:42.742Z,17.83
2019-01-29T16:53:08.807Z,18.27
2019-01-29T16:54:34.383Z,11.20
2019-01-29T16:55:59.949Z,27.73
2019-01-29T16:57:31.433Z,15.43
2019-01-29T16:58:52.515Z,22.43
2019-01-29T17:00:24.394Z,24.77
2019-01-29T17:01:49.872Z,25.57
2019-01-29T17:03:15.365Z,29.12
2019-01-29T17:04:40.895Z,24.90
2019-01-29T17:06:06.975Z,16.63
2019-01-29T17:07:32.497Z,28.57
2019-01-29T17:08:58.026Z,23.80
2019-01-29T17:10:23.617Z,23.57
2019-01-29T17:11:49.182Z,19.30
2019-01-29T17:13:14.820Z,32.10
2019-01-29T17:14:40.232Z,22.83
2019-01-29T17:16:06.122Z,26.63
2019-01-29T17:17:31.678Z,30.27
2019-01-29T17:18:57.170Z,40.80
2019-01-29T17:20:25.552Z,24.63
2019-01-29T17:21:51.100Z,28.37
2019-01-29T17:23:16.863Z,20.27
2019-01-29T17:24:45.089Z,27.43
2019-01-29T17:26:10.677Z,15.57
2019-01-29T17:27:40.217Z,25.83
2019-01-29T17:29:03.663Z,33.87
2019-01-29T17:30:36.750Z,16.37
2019-01-29T17:32:02.298Z,21.50
2019-01-29T17:33:27.929Z,36.67
2019-01-29T17:34:53.473Z,28.30
2019-01-29T17:36:18.971Z,33.27
2019-01-29T17:37:44.689Z,16.27
2019-01-29T17:39:10.558Z,15.93
2019-01-29T17:40:36.099Z,27.03
2019-01-29T17:42:01.778Z,29.00
2019-01-29T17:43:27.362Z,32.60
2019-01-29T17:44:53.032Z,23.17
2019-01-29T17:46:18.528Z,21.30
2019-01-29T17:47:45.331Z,26.40
2019-01-29T17:49:11.003Z,15.40
2019-01-29T17:50:37.969Z,18.90
2019-01-29T17:52:03.442Z,21.90
2019-01-29T17:53:28.853Z,22.13
2019-01-29T17:54:54.498Z,27.40
2019-01-29T17:56:20.004Z,21.23
2019-01-29T17:57:50.632Z,32.43
2019-01-29T17:59:12.709Z,26.70
2019-01-29T18:00:44.726Z,31.63
2019-01-29T18:02:10.806Z,29.70
2019-01-29T18:03:36.367Z,22.13
2019-01-29T18:05:12.529Z,25.73
2019-01-29T18:06:46.724Z,25.27
2019-01-29T18:08:07.690Z,27.93
2019-01-29T18:09:33.197Z,26.43
2019-01-29T18:10:58.690Z,39.70
2019-01-29T18:12:24.246Z,43.00
2019-01-29T18:13:49.790Z,27.83
2019-01-29T18:15:18.677Z,17.37
2019-01-29T18:16:44.221Z,22.73
2019-01-29T18:18:09.814Z,17.60
2019-01-29T18:19:35.353Z,27.13
2019-01-29T18:21:00.807Z,17.43
2019-01-29T18:22:26.217Z,29.53
2019-01-29T18:23:54.019Z,23.50
2019-01-29T18:25:19.642Z,17.30
2019-01-29T18:26:45.114Z,22.40
2019-01-29T18:28:10.722Z,28.53
2019-01-29T18:29:36.117Z,21.03
2019-01-29T18:31:01.731Z,21.57
2019-01-29T18:32:27.182Z,30.60
2019-01-29T18:33:52.650Z,17.70
2019-01-29T18:35:18.727Z,23.97
2019-01-29T18:36:44.360Z,34.13
2019-01-29T18:38:09.941Z,25.47
2019-01-29T18:39:35.460Z,26.13
2019-01-29T18:41:01.100Z,36.93
2019-01-29T18:42:26.552Z,31.23
2019-01-29T18:43:52.063Z,24.53
2019-01-29T18:45:17.699Z,25.83
2019-01-29T18:46:43.205Z,21.43
2019-01-29T18:48:08.785Z,36.33
2019-01-29T18:49:34.516Z,22.10
2019-01-29T18:51:00.077Z,27.80
2019-01-29T18:52:25.477Z,22.80
2019-01-29T18:53:50.970Z,19.17
2019-01-29T18:55:16.665Z,18.73
2019-01-29T18:56:42.136Z,34.17
2019-01-29T18:58:12.051Z,27.57
2019-01-29T18:59:35.018Z,23.50
2019-01-29T19:01:00.529Z,24.30
2019-01-29T19:02:26.110Z,20.57
2019-01-29T19:03:51.610Z,27.80
2019-01-29T19:05:20.101Z,11.10
2019-01-29T19:06:45.790Z,20.13
2019-01-29T19:08:11.311Z,18.60
2019-01-29T19:09:36.760Z,19.80